Time;durP1;ratioP1;P1;durP2;ratioP2;P2;SDS_P1;SDS_P2;PMS_P1;PMS_P2;Temp;Humidity;BMP_temperature;BMP_pressure;BME280_temperature;BME280_humidity;BME280_pressure;Samples;Min_cycle;Max_cycle;Signal;HPM_P1;HPM_P2
2023/08/17 00:00:38;;;;;;;17.17;11.45;;;;;;;;;;5002747;28;20046;-81
2023/08/17 00:03:05;;;;;;;18.27;12.45;;;;;;;;;;5007224;28;20042;-81
2023/08/17 00:05:32;;;;;;;18.80;13.18;;;;;;;;;;5005828;28;20118;-80
2023/08/17 00:08:00;;;;;;;19.40;12.30;;;;;;;;;;5023115;28;20172;-81
2023/08/17 00:10:27;;;;;;;17.75;12.05;;;;;;;;;;5010358;28;20050;-80
2023/08/17 00:12:54;;;;;;;17.35;12.02;;;;;;;;;;4988982;28;20049;-81
2023/08/17 00:15:20;;;;;;;17.40;11.30;;;;;;;;;;5008238;28;20502;-80
2023/08/17 00:17:47;;;;;;;18.95;11.15;;;;;;;;;;5010219;28;20045;-82
2023/08/17 00:20:14;;;;;;;21.27;11.50;;;;;;;;;;4998733;28;20058;-81
2023/08/17 00:22:42;;;;;;;17.75;11.32;;;;;;;;;;5003051;28;20047;-81
2023/08/17 00:25:09;;;;;;;17.40;11.63;;;;;;;;;;5003161;28;20510;-81
2023/08/17 00:27:35;;;;;;;19.50;11.82;;;;;;;;;;4998767;28;20106;-81
2023/08/17 00:30:02;;;;;;;13.80;10.52;;;;;;;;;;5006279;28;20099;-82
2023/08/17 00:32:29;;;;;;;16.25;11.02;;;;;;;;;;4999035;28;20050;-81
2023/08/17 00:34:56;;;;;;;14.98;10.40;;;;;;;;;;5001901;28;20109;-82
2023/08/17 00:37:22;;;;;;;14.68;10.45;;;;;;;;;;4999463;28;20104;-80
2023/08/17 00:39:49;;;;;;;16.02;10.60;;;;;;;;;;5007565;28;20050;-82
2023/08/17 00:42:16;;;;;;;15.65;10.10;;;;;;;;;;5001389;28;20498;-80
2023/08/17 00:44:43;;;;;;;15.90;10.18;;;;;;;;;;5002514;28;20114;-82
2023/08/17 00:47:10;;;;;;;13.57;10.32;;;;;;;;;;5024945;28;20394;-81
2023/08/17 00:49:36;;;;;;;15.95;11.15;;;;;;;;;;5006364;28;20054;-82
2023/08/17 00:52:04;;;;;;;14.75;10.27;;;;;;;;;;5007976;28;20065;-84
2023/08/17 00:54:34;;;;;;;19.70;10.75;;;;;;;;;;4999491;28;20056;-82
2023/08/17 00:57:01;;;;;;;17.92;11.73;;;;;;;;;;5002294;28;20037;-81
2023/08/17 00:59:28;;;;;;;16.92;10.90;;;;;;;;;;5001653;28;20180;-82
2023/08/17 01:02:02;;;;;;;17.15;11.45;;;;;;;;;;5005037;28;20045;-82
2023/08/17 01:04:29;;;;;;;16.75;11.10;;;;;;;;;;5009362;28;20054;-84
2023/08/17 01:06:55;;;;;;;14.88;11.20;;;;;;;;;;4986727;28;20042;-83
2023/08/17 01:09:22;;;;;;;15.18;10.20;;;;;;;;;;4992957;28;20056;-83
2023/08/17 01:11:56;;;;;;;17.50;10.13;;;;;;;;;;5023326;28;20913;-83
2023/08/17 01:14:29;;;;;;;15.52;10.40;;;;;;;;;;5010140;28;22053;-83
2023/08/17 01:17:15;;;;;;;15.75;10.73;;;;;;;;;;5008185;28;20046;-82
2023/08/17 01:19:42;;;;;;;14.65;10.13;;;;;;;;;;4991420;28;20046;-84
2023/08/17 01:22:10;;;;;;;18.85;12.30;;;;;;;;;;5009785;28;20095;-82
2023/08/17 01:24:37;;;;;;;18.33;11.40;;;;;;;;;;5005029;28;20054;-82
2023/08/17 01:27:04;;;;;;;17.88;11.20;;;;;;;;;;5013290;28;20104;-81
2023/08/17 01:29:31;;;;;;;14.82;10.73;;;;;;;;;;5008194;28;20152;-82
2023/08/17 01:32:04;;;;;;;18.80;10.90;;;;;;;;;;5026493;28;20055;-82
2023/08/17 01:34:32;;;;;;;17.13;11.40;;;;;;;;;;5004316;28;20103;-80
2023/08/17 01:37:01;;;;;;;17.33;11.02;;;;;;;;;;5001893;28;20054;-81
2023/08/17 01:39:30;;;;;;;14.20;10.75;;;;;;;;;;5000796;28;20048;-81
2023/08/17 01:41:58;;;;;;;17.98;10.98;;;;;;;;;;5003214;28;20045;-80
2023/08/17 01:44:27;;;;;;;15.80;11.15;;;;;;;;;;5003854;28;20053;-79
2023/08/17 01:46:54;;;;;;;17.00;11.52;;;;;;;;;;5004078;28;20819;-80
2023/08/17 01:49:22;;;;;;;16.30;10.85;;;;;;;;;;4997620;28;20225;-80
2023/08/17 01:51:48;;;;;;;15.85;9.82;;;;;;;;;;5022612;28;20039;-81
2023/08/17 01:54:15;;;;;;;15.60;10.98;;;;;;;;;;4998646;28;20037;-83
2023/08/17 01:56:45;;;;;;;15.95;10.25;;;;;;;;;;4996021;28;20629;-81
2023/08/17 01:59:14;;;;;;;19.15;11.05;;;;;;;;;;4998204;28;20576;-82
2023/08/17 02:01:43;;;;;;;21.67;10.77;;;;;;;;;;4989820;28;20101;-81
2023/08/17 02:04:10;;;;;;;18.45;11.02;;;;;;;;;;5010762;28;20045;-80
2023/08/17 02:06:38;;;;;;;18.92;11.55;;;;;;;;;;5005083;28;20054;-80
2023/08/17 02:09:04;;;;;;;18.45;11.82;;;;;;;;;;5008136;28;20045;-81
2023/08/17 02:11:33;;;;;;;15.93;10.93;;;;;;;;;;4999378;28;20042;-79
2023/08/17 02:14:08;;;;;;;18.13;11.98;;;;;;;;;;4986229;28;20047;-79
2023/08/17 02:16:35;;;;;;;17.67;11.35;;;;;;;;;;4991730;28;20172;-80
2023/08/17 02:19:05;;;;;;;17.73;11.40;;;;;;;;;;4991686;28;20038;-80
2023/08/17 02:21:31;;;;;;;18.20;12.10;;;;;;;;;;4997585;28;20110;-80
2023/08/17 02:23:58;;;;;;;17.80;11.55;;;;;;;;;;5001565;28;20217;-80
2023/08/17 02:26:25;;;;;;;18.77;11.27;;;;;;;;;;5005970;28;20045;-80
2023/08/17 02:28:54;;;;;;;18.45;12.45;;;;;;;;;;4998041;28;20518;-81
2023/08/17 02:31:23;;;;;;;18.50;11.70;;;;;;;;;;4965086;28;20068;-79
2023/08/17 02:33:50;;;;;;;16.77;11.40;;;;;;;;;;4997026;28;20041;-79
2023/08/17 02:36:17;;;;;;;18.70;12.35;;;;;;;;;;5001666;28;20043;-80
2023/08/17 02:38:43;;;;;;;18.73;12.85;;;;;;;;;;5007189;28;20038;-81
2023/08/17 02:41:10;;;;;;;20.83;12.90;;;;;;;;;;4980315;28;20591;-81
2023/08/17 02:43:37;;;;;;;20.40;11.60;;;;;;;;;;4999230;28;20550;-80
2023/08/17 02:46:06;;;;;;;19.83;11.32;;;;;;;;;;5000324;28;20845;-79
2023/08/17 02:48:36;;;;;;;19.95;12.45;;;;;;;;;;5002899;28;20062;-79
2023/08/17 02:51:04;;;;;;;19.52;11.60;;;;;;;;;;5002360;28;20053;-80
2023/08/17 02:53:30;;;;;;;19.40;12.45;;;;;;;;;;5006766;28;20073;-81
2023/08/17 02:55:57;;;;;;;21.67;13.50;;;;;;;;;;5007751;28;20043;-81
2023/08/17 02:58:24;;;;;;;19.25;12.73;;;;;;;;;;5020516;28;21005;-80
2023/08/17 03:00:51;;;;;;;20.88;13.93;;;;;;;;;;4999065;28;20097;-81
2023/08/17 03:03:19;;;;;;;35.65;21.65;;;;;;;;;;5006013;28;20076;-81
2023/08/17 03:05:46;;;;;;;38.17;23.17;;;;;;;;;;5015842;28;20042;-79
2023/08/17 03:08:13;;;;;;;37.03;23.00;;;;;;;;;;5025747;28;20113;-80
2023/08/17 03:10:40;;;;;;;38.67;23.90;;;;;;;;;;5009632;28;20058;-80
2023/08/17 03:13:07;;;;;;;39.58;23.33;;;;;;;;;;5014546;28;20081;-79
2023/08/17 03:15:33;;;;;;;44.80;25.88;;;;;;;;;;5015571;28;20041;-81
2023/08/17 03:18:00;;;;;;;40.40;25.23;;;;;;;;;;5004270;28;20049;-80
2023/08/17 03:20:30;;;;;;;42.97;25.63;;;;;;;;;;5007227;28;20505;-79
2023/08/17 03:23:00;;;;;;;42.83;26.35;;;;;;;;;;5010411;28;20116;-81
2023/08/17 03:25:27;;;;;;;39.83;24.15;;;;;;;;;;5004876;28;20110;-78
2023/08/17 03:27:53;;;;;;;41.47;23.50;;;;;;;;;;5007147;28;20042;-80
2023/08/17 03:30:20;;;;;;;39.50;24.25;;;;;;;;;;5027275;28;20066;-78
2023/08/17 03:32:47;;;;;;;34.13;22.48;;;;;;;;;;5004743;28;20043;-80
2023/08/17 03:35:14;;;;;;;38.15;22.25;;;;;;;;;;5004742;28;20053;-81
2023/08/17 03:37:40;;;;;;;36.08;22.50;;;;;;;;;;4998248;28;20069;-79
2023/08/17 03:40:08;;;;;;;34.70;21.35;;;;;;;;;;4996427;28;20042;-82
2023/08/17 03:42:35;;;;;;;37.90;19.13;;;;;;;;;;5008918;28;20212;-80
2023/08/17 03:45:03;;;;;;;33.50;19.20;;;;;;;;;;4998602;28;20054;-80
2023/08/17 03:47:29;;;;;;;30.95;18.67;;;;;;;;;;4992019;28;20523;-78
2023/08/17 03:49:56;;;;;;;26.10;17.05;;;;;;;;;;5004024;28;20137;-82
2023/08/17 03:52:23;;;;;;;24.05;15.30;;;;;;;;;;5008512;28;20057;-81
2023/08/17 03:54:52;;;;;;;19.77;14.20;;;;;;;;;;5004911;28;20046;-81
2023/08/17 03:57:19;;;;;;;18.92;13.30;;;;;;;;;;5002099;28;20072;-81
2023/08/17 03:59:46;;;;;;;17.88;13.15;;;;;;;;;;4981991;28;20046;-79
2023/08/17 04:02:15;;;;;;;18.15;12.82;;;;;;;;;;4996671;28;20058;-80
2023/08/17 04:04:42;;;;;;;19.85;12.07;;;;;;;;;;5007884;28;20039;-79
2023/08/17 04:07:09;;;;;;;17.92;11.02;;;;;;;;;;4984440;28;20045;-80
2023/08/17 04:09:36;;;;;;;16.95;11.90;;;;;;;;;;5009009;28;20088;-79
2023/08/17 04:12:04;;;;;;;17.00;9.95;;;;;;;;;;5005324;28;20089;-81
2023/08/17 04:14:34;;;;;;;14.38;9.35;;;;;;;;;;4992445;28;20045;-79
2023/08/17 04:17:00;;;;;;;11.88;9.10;;;;;;;;;;4997101;28;20072;-81
2023/08/17 04:19:27;;;;;;;10.57;7.53;;;;;;;;;;5006473;28;20113;-80
2023/08/17 04:21:54;;;;;;;13.10;7.72;;;;;;;;;;5005935;28;20046;-79
2023/08/17 04:24:20;;;;;;;10.43;7.05;;;;;;;;;;5008297;28;20046;-80
2023/08/17 04:26:47;;;;;;;16.13;6.95;;;;;;;;;;5015138;28;20050;-79
2023/08/17 04:29:17;;;;;;;12.60;6.47;;;;;;;;;;5001816;28;20046;-79
2023/08/17 04:31:45;;;;;;;9.30;5.78;;;;;;;;;;5014450;28;20045;-81
2023/08/17 04:34:12;;;;;;;7.68;5.60;;;;;;;;;;5012991;28;20042;-81
2023/08/17 04:36:39;;;;;;;8.55;6.03;;;;;;;;;;4991330;28;20208;-83
2023/08/17 04:39:06;;;;;;;8.30;5.28;;;;;;;;;;5013852;28;20061;-80
2023/08/17 04:41:33;;;;;;;6.25;4.43;;;;;;;;;;5014823;28;20392;-81
2023/08/17 04:44:02;;;;;;;6.93;4.68;;;;;;;;;;4994773;28;20704;-79
2023/08/17 04:46:29;;;;;;;8.98;3.97;;;;;;;;;;4993909;28;20054;-79
2023/08/17 04:48:56;;;;;;;7.75;4.20;;;;;;;;;;5013124;28;20041;-78
2023/08/17 04:51:23;;;;;;;6.50;4.13;;;;;;;;;;5005714;28;20053;-80
2023/08/17 04:53:49;;;;;;;6.03;4.40;;;;;;;;;;5009564;28;20077;-79
2023/08/17 04:56:16;;;;;;;7.20;4.80;;;;;;;;;;5012951;28;20042;-78
2023/08/17 04:58:43;;;;;;;9.90;4.25;;;;;;;;;;5006917;28;20077;-80
2023/08/17 05:01:12;;;;;;;5.18;4.20;;;;;;;;;;5003953;28;20457;-80
2023/08/17 05:03:40;;;;;;;5.88;4.05;;;;;;;;;;5006991;28;20041;-81
2023/08/17 05:06:07;;;;;;;9.43;3.75;;;;;;;;;;4998763;28;20064;-80
2023/08/17 05:08:34;;;;;;;8.52;4.22;;;;;;;;;;5003064;28;20073;-81
2023/08/17 05:11:01;;;;;;;7.07;4.10;;;;;;;;;;5001764;28;20041;-81
2023/08/17 05:13:28;;;;;;;5.05;3.75;;;;;;;;;;5004079;28;20060;-81
2023/08/17 05:15:58;;;;;;;3.70;2.90;;;;;;;;;;5005418;28;20062;-79
2023/08/17 05:18:25;;;;;;;12.32;3.35;;;;;;;;;;5007323;28;20139;-81
2023/08/17 05:20:51;;;;;;;4.40;2.92;;;;;;;;;;5002757;28;20042;-81
2023/08/17 05:23:18;;;;;;;4.20;3.10;;;;;;;;;;5009969;28;20046;-80
2023/08/17 05:25:48;;;;;;;4.13;3.03;;;;;;;;;;4994858;28;20140;-81
2023/08/17 05:28:15;;;;;;;6.15;2.78;;;;;;;;;;4996835;28;20117;-80
2023/08/17 05:30:41;;;;;;;4.28;2.90;;;;;;;;;;4999261;28;20050;-82
2023/08/17 05:33:08;;;;;;;3.80;3.08;;;;;;;;;;4983873;28;20402;-82
2023/08/17 05:35:35;;;;;;;6.47;3.08;;;;;;;;;;4997296;28;20050;-81
2023/08/17 05:38:02;;;;;;;3.47;2.63;;;;;;;;;;5003991;28;20045;-78
2023/08/17 05:40:32;;;;;;;6.22;2.90;;;;;;;;;;5002897;28;20120;-83
2023/08/17 05:42:59;;;;;;;4.75;2.80;;;;;;;;;;5003842;28;20100;-81
2023/08/17 05:45:25;;;;;;;3.08;2.30;;;;;;;;;;5007526;28;20076;-82
2023/08/17 05:47:52;;;;;;;3.95;2.25;;;;;;;;;;5004887;28;20097;-80
2023/08/17 05:50:19;;;;;;;4.78;2.70;;;;;;;;;;4988854;28;20054;-80
2023/08/17 05:52:46;;;;;;;4.70;2.33;;;;;;;;;;5004294;28;20061;-83
2023/08/17 05:55:12;;;;;;;5.50;2.33;;;;;;;;;;5010206;28;20049;-81
2023/08/17 05:57:39;;;;;;;4.57;2.58;;;;;;;;;;5007623;28;20118;-81
2023/08/17 06:00:08;;;;;;;6.68;2.70;;;;;;;;;;5005414;28;20076;-81
2023/08/17 06:02:37;;;;;;;5.85;2.85;;;;;;;;;;5006464;28;20109;-81
2023/08/17 06:05:04;;;;;;;5.03;2.63;;;;;;;;;;5001607;28;20053;-82
2023/08/17 06:07:31;;;;;;;3.72;2.47;;;;;;;;;;5012744;28;20042;-81
2023/08/17 06:09:58;;;;;;;4.22;3.08;;;;;;;;;;5020743;28;20121;-82
2023/08/17 06:12:24;;;;;;;6.63;3.10;;;;;;;;;;4992444;28;20042;-80
2023/08/17 06:14:51;;;;;;;5.22;3.33;;;;;;;;;;5004752;28;20050;-81
2023/08/17 06:17:17;;;;;;;3.40;2.58;;;;;;;;;;5013580;28;20042;-82
2023/08/17 06:19:44;;;;;;;4.18;3.20;;;;;;;;;;5008669;28;20056;-83
2023/08/17 06:22:11;;;;;;;4.20;2.75;;;;;;;;;;4998277;28;20053;-80
2023/08/17 06:24:38;;;;;;;5.47;2.70;;;;;;;;;;5005221;28;20042;-83
2023/08/17 06:27:05;;;;;;;4.20;3.13;;;;;;;;;;5008901;28;20046;-82
2023/08/17 06:29:31;;;;;;;4.15;2.83;;;;;;;;;;5003402;28;20057;-79
2023/08/17 06:31:58;;;;;;;5.35;3.10;;;;;;;;;;5015851;28;20053;-83
2023/08/17 06:34:25;;;;;;;4.30;3.63;;;;;;;;;;5019446;28;20057;-83
2023/08/17 06:37:02;;;;;;;4.75;3.15;;;;;;;;;;5010550;28;20360;-83
2023/08/17 06:39:29;;;;;;;6.25;4.10;;;;;;;;;;5016451;28;20504;-82
2023/08/17 06:41:55;;;;;;;7.63;4.68;;;;;;;;;;5015062;28;20042;-79
2023/08/17 06:44:22;;;;;;;5.97;4.07;;;;;;;;;;5014784;28;20066;-78
2023/08/17 06:46:49;;;;;;;6.65;4.75;;;;;;;;;;5006990;28;20066;-79
2023/08/17 06:49:15;;;;;;;8.57;4.45;;;;;;;;;;5009834;28;20537;-79
2023/08/17 06:51:42;;;;;;;7.20;4.60;;;;;;;;;;5010924;28;20076;-77
2023/08/17 06:54:11;;;;;;;9.05;4.75;;;;;;;;;;5010973;28;20046;-77
2023/08/17 06:56:38;;;;;;;7.38;4.90;;;;;;;;;;5019247;28;20049;-78
2023/08/17 06:59:05;;;;;;;7.85;4.85;;;;;;;;;;5008152;28;20050;-77
2023/08/17 07:01:32;;;;;;;7.72;4.97;;;;;;;;;;5012709;28;20041;-78
2023/08/17 07:03:58;;;;;;;7.70;5.25;;;;;;;;;;5003255;28;20049;-78
2023/08/17 07:06:25;;;;;;;11.50;5.13;;;;;;;;;;5010956;28;20548;-81
2023/08/17 07:08:52;;;;;;;10.93;5.40;;;;;;;;;;5004011;28;20042;-80
2023/08/17 07:11:19;;;;;;;7.60;5.25;;;;;;;;;;5011261;28;20057;-81
2023/08/17 07:13:49;;;;;;;9.05;5.28;;;;;;;;;;5019368;28;20438;-83
2023/08/17 07:16:15;;;;;;;9.90;6.78;;;;;;;;;;5012912;28;20054;-81
2023/08/17 07:18:45;;;;;;;10.02;6.50;;;;;;;;;;5007722;28;20105;-79
2023/08/17 07:21:12;;;;;;;10.20;6.32;;;;;;;;;;5007387;28;20042;-78
2023/08/17 07:23:38;;;;;;;9.00;6.20;;;;;;;;;;5006365;28;20498;-79
2023/08/17 07:26:05;;;;;;;9.82;6.65;;;;;;;;;;5001834;28;20046;-80
2023/08/17 07:28:31;;;;;;;10.68;6.72;;;;;;;;;;5000301;28;20053;-79
2023/08/17 07:30:58;;;;;;;11.68;7.43;;;;;;;;;;4997978;28;20223;-79
2023/08/17 07:33:25;;;;;;;14.68;7.78;;;;;;;;;;5005421;28;20049;-80
2023/08/17 07:35:53;;;;;;;11.70;6.78;;;;;;;;;;4995451;28;20045;-80
2023/08/17 07:38:19;;;;;;;12.70;7.45;;;;;;;;;;5019445;28;20069;-80
2023/08/17 07:40:46;;;;;;;11.50;7.28;;;;;;;;;;5015433;28;20035;-79
2023/08/17 07:43:13;;;;;;;11.88;6.97;;;;;;;;;;5007352;28;20501;-80
2023/08/17 07:45:39;;;;;;;11.45;7.38;;;;;;;;;;5006562;28;20049;-80
2023/08/17 07:48:06;;;;;;;11.35;7.40;;;;;;;;;;4988874;28;20493;-80
2023/08/17 07:50:33;;;;;;;10.27;6.78;;;;;;;;;;4991587;28;20050;-79
2023/08/17 07:52:59;;;;;;;11.65;7.50;;;;;;;;;;5004568;28;20042;-80
2023/08/17 07:55:26;;;;;;;11.35;7.05;;;;;;;;;;4995046;28;20465;-80
2023/08/17 07:57:53;;;;;;;11.23;7.32;;;;;;;;;;5000887;28;20557;-80
2023/08/17 08:00:20;;;;;;;12.50;7.55;;;;;;;;;;4982146;28;20119;-80
2023/08/17 08:02:46;;;;;;;15.90;7.80;;;;;;;;;;4997800;28;20038;-79
2023/08/17 08:05:14;;;;;;;11.63;7.50;;;;;;;;;;5000447;28;20046;-80
2023/08/17 08:07:40;;;;;;;11.55;8.18;;;;;;;;;;4997840;28;20073;-80
2023/08/17 08:10:08;;;;;;;12.73;8.57;;;;;;;;;;5009853;28;20050;-79
2023/08/17 08:12:34;;;;;;;11.65;8.20;;;;;;;;;;5003168;28;20660;-78
2023/08/17 08:15:01;;;;;;;15.65;8.13;;;;;;;;;;5000998;28;20046;-77
2023/08/17 08:17:28;;;;;;;12.80;8.23;;;;;;;;;;5002066;28;20506;-79
2023/08/17 08:19:55;;;;;;;13.07;8.13;;;;;;;;;;5002491;28;20050;-78
2023/08/17 08:22:22;;;;;;;14.05;8.77;;;;;;;;;;5001448;28;20569;-78
2023/08/17 08:24:49;;;;;;;17.70;8.98;;;;;;;;;;5000620;28;20047;-77
2023/08/17 08:27:15;;;;;;;13.85;7.75;;;;;;;;;;5003363;28;20042;-78
2023/08/17 08:29:43;;;;;;;12.90;8.07;;;;;;;;;;5000816;28;20054;-79
2023/08/17 08:32:09;;;;;;;14.23;8.55;;;;;;;;;;4998863;28;20038;-79
2023/08/17 08:34:36;;;;;;;14.43;8.85;;;;;;;;;;4998089;28;20042;-80
2023/08/17 08:37:03;;;;;;;16.17;8.63;;;;;;;;;;5001079;28;20061;-78
2023/08/17 08:39:29;;;;;;;14.10;8.63;;;;;;;;;;4997584;28;20050;-78
2023/08/17 08:41:56;;;;;;;18.05;9.02;;;;;;;;;;4999695;28;20109;-78
2023/08/17 08:44:23;;;;;;;15.02;9.88;;;;;;;;;;5001844;28;20462;-78
2023/08/17 08:46:50;;;;;;;11.98;8.77;;;;;;;;;;5000895;28;20048;-80
2023/08/17 08:49:19;;;;;;;12.57;9.00;;;;;;;;;;5002657;28;20502;-79
2023/08/17 08:51:49;;;;;;;14.27;8.65;;;;;;;;;;5001067;28;20701;-79
2023/08/17 08:54:20;;;;;;;13.95;8.80;;;;;;;;;;4984295;28;20469;-77
2023/08/17 08:56:48;;;;;;;16.40;9.60;;;;;;;;;;4991342;28;20050;-77
2023/08/17 08:59:16;;;;;;;13.90;9.90;;;;;;;;;;5005298;28;20057;-79
2023/08/17 09:01:43;;;;;;;12.80;8.73;;;;;;;;;;5002526;28;20137;-79
2023/08/17 09:04:10;;;;;;;12.70;8.73;;;;;;;;;;4993422;28;20046;-77
2023/08/17 09:06:40;;;;;;;16.20;9.85;;;;;;;;;;4993144;28;22007;-79
2023/08/17 09:09:07;;;;;;;14.32;9.48;;;;;;;;;;5011092;28;20054;-80
2023/08/17 09:11:34;;;;;;;16.52;10.25;;;;;;;;;;4997529;28;20050;-81
2023/08/17 09:14:01;;;;;;;16.48;11.25;;;;;;;;;;4999157;28;20045;-80
2023/08/17 09:16:27;;;;;;;14.65;11.13;;;;;;;;;;4999469;28;20054;-80
2023/08/17 09:18:54;;;;;;;15.32;10.63;;;;;;;;;;5000218;28;20042;-81
2023/08/17 09:21:22;;;;;;;18.77;10.60;;;;;;;;;;4982633;28;20295;-78
2023/08/17 09:23:53;;;;;;;14.88;10.82;;;;;;;;;;4998761;28;20055;-80
2023/08/17 09:26:24;;;;;;;21.92;10.27;;;;;;;;;;4996520;28;20057;-78
2023/08/17 09:28:51;;;;;;;15.95;10.32;;;;;;;;;;4989363;28;20053;-81
2023/08/17 09:31:21;;;;;;;16.17;10.20;;;;;;;;;;4994731;28;20053;-79
2023/08/17 09:33:49;;;;;;;15.75;10.02;;;;;;;;;;5002133;28;20053;-80
2023/08/17 09:36:20;;;;;;;15.43;9.77;;;;;;;;;;4992169;28;20417;-80
2023/08/17 09:38:47;;;;;;;14.82;10.82;;;;;;;;;;5001515;28;20058;-78
2023/08/17 09:41:14;;;;;;;12.68;9.32;;;;;;;;;;5001222;28;20049;-80
2023/08/17 09:43:41;;;;;;;12.75;9.55;;;;;;;;;;4999947;28;21128;-80
2023/08/17 09:46:08;;;;;;;15.52;9.23;;;;;;;;;;5004924;28;20053;-78
2023/08/17 09:48:36;;;;;;;13.50;9.85;;;;;;;;;;5005458;28;20046;-81
2023/08/17 09:51:02;;;;;;;14.25;9.85;;;;;;;;;;5006961;28;20051;-81
2023/08/17 09:53:29;;;;;;;14.18;9.52;;;;;;;;;;5003907;28;20073;-81
2023/08/17 09:55:57;;;;;;;13.23;8.15;;;;;;;;;;5004192;28;20050;-81
2023/08/17 09:58:23;;;;;;;11.98;8.55;;;;;;;;;;5009335;28;20049;-81
2023/08/17 10:00:58;;;;;;;14.80;8.48;;;;;;;;;;5007641;28;20121;-80
2023/08/17 10:03:27;;;;;;;12.15;8.80;;;;;;;;;;5005471;28;20053;-81
2023/08/17 10:05:59;;;;;;;12.60;8.77;;;;;;;;;;5022285;28;20073;-80
2023/08/17 10:08:27;;;;;;;10.90;7.85;;;;;;;;;;5007971;28;20627;-80
2023/08/17 10:10:54;;;;;;;8.48;6.85;;;;;;;;;;5006343;28;20034;-79
2023/08/17 10:13:26;;;;;;;12.13;7.97;;;;;;;;;;5008464;28;20053;-80
2023/08/17 10:15:52;;;;;;;10.13;7.93;;;;;;;;;;5006700;28;20045;-79
2023/08/17 10:18:31;;;;;;;10.77;7.25;;;;;;;;;;5005851;28;20046;-80
2023/08/17 10:21:01;;;;;;;10.40;7.40;;;;;;;;;;4988540;28;20046;-80
2023/08/17 10:23:29;;;;;;;10.43;7.95;;;;;;;;;;5013209;28;20041;-82
2023/08/17 10:25:56;;;;;;;9.50;7.22;;;;;;;;;;5015040;28;20050;-83
2023/08/17 10:28:24;;;;;;;10.63;7.30;;;;;;;;;;5015839;28;20048;-82
2023/08/17 10:30:51;;;;;;;7.90;7.00;;;;;;;;;;5013500;28;20045;-80
2023/08/17 10:33:18;;;;;;;9.65;7.07;;;;;;;;;;5021898;28;20099;-81
2023/08/17 10:35:45;;;;;;;9.48;6.80;;;;;;;;;;5009263;28;20045;-84
2023/08/17 10:38:12;;;;;;;8.95;6.82;;;;;;;;;;5010377;28;20482;-79
2023/08/17 10:40:42;;;;;;;9.20;6.75;;;;;;;;;;5006971;28;20046;-83
2023/08/17 10:43:09;;;;;;;9.15;7.40;;;;;;;;;;5017537;28;20049;-81
2023/08/17 10:45:38;;;;;;;11.02;7.78;;;;;;;;;;5012928;28;20505;-80
2023/08/17 10:48:05;;;;;;;8.88;7.65;;;;;;;;;;5012508;28;20045;-81
2023/08/17 10:50:32;;;;;;;11.23;7.85;;;;;;;;;;5009911;28;20568;-80
2023/08/17 10:53:04;;;;;;;9.32;7.22;;;;;;;;;;5019746;28;20449;-81
2023/08/17 10:55:37;;;;;;;11.88;7.80;;;;;;;;;;5005895;28;20097;-81
2023/08/17 10:58:04;;;;;;;11.65;7.72;;;;;;;;;;5013832;28;20468;-79
2023/08/17 11:00:36;;;;;;;9.32;6.72;;;;;;;;;;5012105;28;20053;-81
2023/08/17 11:03:05;;;;;;;10.65;7.43;;;;;;;;;;5001930;28;20050;-82
2023/08/17 11:05:55;;;;;;;11.85;7.50;;;;;;;;;;4997760;28;20112;-82
2023/08/17 11:08:22;;;;;;;10.85;7.53;;;;;;;;;;5015119;28;20473;-82
2023/08/17 11:10:58;;;;;;;9.60;7.15;;;;;;;;;;5000281;28;20560;-82
2023/08/17 11:13:30;;;;;;;10.80;7.43;;;;;;;;;;5010077;28;21226;-81
2023/08/17 11:15:58;;;;;;;10.73;7.82;;;;;;;;;;5013953;28;20045;-80
2023/08/17 11:18:30;;;;;;;10.00;7.45;;;;;;;;;;5008991;28;20068;-79
2023/08/17 11:20:57;;;;;;;8.88;7.45;;;;;;;;;;5004517;28;20125;-81
2023/08/17 11:23:24;;;;;;;10.43;7.60;;;;;;;;;;5014947;28;20052;-79
2023/08/17 11:25:53;;;;;;;11.02;7.45;;;;;;;;;;5011592;28;21188;-81
2023/08/17 11:28:21;;;;;;;9.02;7.38;;;;;;;;;;5015436;28;20052;-82
2023/08/17 11:31:07;;;;;;;8.63;7.30;;;;;;;;;;5008674;28;20178;-80
2023/08/17 11:33:35;;;;;;;10.48;7.75;;;;;;;;;;5020584;28;20060;-83
2023/08/17 11:36:02;;;;;;;10.40;7.95;;;;;;;;;;5018740;28;20046;-83
2023/08/17 11:38:31;;;;;;;10.10;7.63;;;;;;;;;;5027734;28;20069;-81
2023/08/17 11:40:58;;;;;;;9.85;7.78;;;;;;;;;;5022088;28;20503;-81
2023/08/17 11:43:25;;;;;;;9.07;7.20;;;;;;;;;;5020140;28;20369;-82
2023/08/17 11:45:54;;;;;;;9.82;7.68;;;;;;;;;;5004188;28;20235;-81
2023/08/17 11:48:21;;;;;;;12.40;7.63;;;;;;;;;;5004773;28;20042;-81
2023/08/17 11:50:48;;;;;;;8.48;7.50;;;;;;;;;;5012325;28;20137;-81
2023/08/17 11:53:15;;;;;;;8.90;7.18;;;;;;;;;;5014537;28;20414;-82
2023/08/17 11:55:41;;;;;;;8.52;7.47;;;;;;;;;;5012687;28;20528;-83
2023/08/17 11:58:08;;;;;;;8.18;7.03;;;;;;;;;;5021813;28;20053;-80
2023/08/17 12:00:42;;;;;;;9.43;7.43;;;;;;;;;;5019724;28;20042;-80
2023/08/17 12:03:12;;;;;;;11.00;7.45;;;;;;;;;;5024876;28;20060;-84
2023/08/17 12:05:39;;;;;;;9.75;7.82;;;;;;;;;;5014454;28;20068;-80
2023/08/17 12:08:07;;;;;;;8.18;7.15;;;;;;;;;;5010301;28;20057;-86
2023/08/17 12:10:34;;;;;;;8.68;7.38;;;;;;;;;;4996737;28;20109;-84
2023/08/17 12:13:01;;;;;;;9.60;6.97;;;;;;;;;;5013835;28;20053;-84
2023/08/17 12:15:35;;;;;;;8.40;7.13;;;;;;;;;;5021548;28;20504;-84
2023/08/17 12:18:03;;;;;;;9.13;6.90;;;;;;;;;;4982139;28;20050;-85
2023/08/17 12:20:32;;;;;;;8.45;7.35;;;;;;;;;;5018136;28;20046;-84
2023/08/17 12:22:59;;;;;;;10.02;6.88;;;;;;;;;;5013120;28;20730;-85
2023/08/17 12:25:26;;;;;;;8.05;6.85;;;;;;;;;;5012663;28;20046;-80
2023/08/17 12:27:52;;;;;;;11.10;7.07;;;;;;;;;;4998030;28;20132;-82
2023/08/17 12:30:30;;;;;;;8.93;6.65;;;;;;;;;;5015783;28;20060;-80
2023/08/17 12:32:57;;;;;;;8.80;7.20;;;;;;;;;;5015316;28;20053;-80
2023/08/17 12:35:25;;;;;;;9.02;6.97;;;;;;;;;;4988533;28;20487;-82
2023/08/17 12:37:52;;;;;;;9.85;7.40;;;;;;;;;;5005116;28;20129;-81
2023/08/17 12:40:25;;;;;;;9.60;6.75;;;;;;;;;;5010771;28;20084;-80
2023/08/17 12:42:51;;;;;;;8.63;7.10;;;;;;;;;;4997751;28;20038;-82
2023/08/17 12:45:18;;;;;;;11.02;7.32;;;;;;;;;;5005375;28;20050;-84
2023/08/17 12:47:45;;;;;;;13.32;6.78;;;;;;;;;;5009846;28;20525;-84
2023/08/17 12:50:12;;;;;;;9.73;7.30;;;;;;;;;;5006391;28;20130;-82
2023/08/17 12:52:38;;;;;;;9.63;7.32;;;;;;;;;;5010623;28;20053;-82
2023/08/17 12:55:05;;;;;;;10.13;7.53;;;;;;;;;;5007828;28;20150;-79
2023/08/17 12:57:32;;;;;;;9.55;7.65;;;;;;;;;;5004315;28;20038;-80
2023/08/17 12:59:59;;;;;;;9.20;7.20;;;;;;;;;;5001555;28;20066;-78
2023/08/17 13:02:26;;;;;;;8.20;6.63;;;;;;;;;;5008652;28;20049;-84
2023/08/17 13:04:53;;;;;;;10.00;7.50;;;;;;;;;;5002633;28;20476;-84
2023/08/17 13:07:20;;;;;;;10.63;7.47;;;;;;;;;;4989126;28;20047;-80
2023/08/17 13:09:46;;;;;;;10.48;7.82;;;;;;;;;;4996725;28;20046;-82
2023/08/17 13:12:13;;;;;;;10.68;7.50;;;;;;;;;;4999183;28;20077;-81
2023/08/17 13:14:40;;;;;;;11.88;8.05;;;;;;;;;;5005901;28;20035;-79
2023/08/17 13:17:07;;;;;;;9.77;7.78;;;;;;;;;;5008618;28;20498;-85
2023/08/17 13:19:33;;;;;;;10.90;7.65;;;;;;;;;;5003051;28;21100;-81
2023/08/17 13:22:02;;;;;;;11.98;7.68;;;;;;;;;;4999131;28;20097;-78
2023/08/17 13:24:29;;;;;;;8.80;5.80;;;;;;;;;;5002583;28;20106;-83
2023/08/17 13:26:57;;;;;;;7.88;5.88;;;;;;;;;;4991673;28;20198;-82
2023/08/17 13:29:24;;;;;;;10.35;5.13;;;;;;;;;;4994062;28;20061;-81
2023/08/17 13:31:51;;;;;;;7.45;5.18;;;;;;;;;;4996617;28;20039;-80
2023/08/17 13:34:17;;;;;;;9.43;6.07;;;;;;;;;;5011775;28;20046;-83
2023/08/17 13:36:44;;;;;;;7.93;5.03;;;;;;;;;;4994787;28;20042;-81
2023/08/17 13:39:11;;;;;;;7.10;4.50;;;;;;;;;;4999391;28;20072;-79
2023/08/17 13:41:37;;;;;;;6.07;4.15;;;;;;;;;;5006473;28;20072;-83
2023/08/17 13:44:04;;;;;;;7.90;4.45;;;;;;;;;;4996802;28;20034;-82
2023/08/17 13:46:31;;;;;;;6.18;4.05;;;;;;;;;;5014186;28;20417;-80
2023/08/17 13:48:58;;;;;;;5.65;3.78;;;;;;;;;;4995191;28;20481;-80
2023/08/17 13:51:25;;;;;;;4.97;3.42;;;;;;;;;;5004386;28;20065;-83
2023/08/17 13:53:52;;;;;;;5.75;3.60;;;;;;;;;;5011010;28;20042;-84
2023/08/17 13:56:19;;;;;;;5.00;3.72;;;;;;;;;;4992985;28;20073;-79
2023/08/17 13:58:45;;;;;;;4.53;3.55;;;;;;;;;;4996319;28;20046;-81
2023/08/17 14:01:12;;;;;;;5.65;3.90;;;;;;;;;;4999179;28;20038;-80
2023/08/17 14:03:39;;;;;;;4.90;3.65;;;;;;;;;;5002730;28;20049;-81
2023/08/17 14:06:06;;;;;;;4.38;3.45;;;;;;;;;;5009675;28;20124;-81
2023/08/17 14:08:32;;;;;;;7.93;3.95;;;;;;;;;;5015383;28;20041;-80
2023/08/17 14:11:00;;;;;;;4.70;3.70;;;;;;;;;;5012933;28;20203;-81
2023/08/17 14:13:26;;;;;;;6.13;3.70;;;;;;;;;;4983897;28;20066;-82
2023/08/17 14:15:55;;;;;;;5.20;3.75;;;;;;;;;;5010012;28;20046;-82
2023/08/17 14:18:22;;;;;;;4.35;3.40;;;;;;;;;;5006433;28;20061;-80
2023/08/17 14:20:49;;;;;;;4.32;3.60;;;;;;;;;;5002107;28;20050;-84
2023/08/17 14:23:16;;;;;;;7.10;4.07;;;;;;;;;;5009670;28;20053;-83
2023/08/17 14:25:42;;;;;;;5.78;3.80;;;;;;;;;;5005415;28;20042;-82
2023/08/17 14:28:09;;;;;;;9.02;3.88;;;;;;;;;;5013425;28;20046;-83
2023/08/17 14:30:36;;;;;;;5.78;4.00;;;;;;;;;;5008377;28;20123;-82
2023/08/17 14:33:03;;;;;;;4.68;3.50;;;;;;;;;;5008167;28;20042;-82